Port Hope, MI

7:11 PM EST on December 17, 2014 (GMT -0500)
Eastwatch-by-the-Sea | Change Station
CLOSE
Current Station
Personal Weather Station
Location: Port Hope, MI
Elevation: 565 ft
Nearby Weather Stations

Elev 565 ft 43.95 °N, 82.72 °W | Updated 4 seconds ago

Snow
Snow
28.4 °F
Feels Like 20 °F
N
9.2
Wind Variable Wind from West
Gusts 15.2 mph

Today
High -- | Low -- °F
--% Chance of Precip.
Yesterday
High -- | Low -- °F
Precip. -- in
8:00 AM 4:54 PM
Waning Crescent, 19% visible
Pressure 30.04 in
Visibility 4.0 miles
Clouds Scattered Clouds 1100 ft
Mostly Cloudy 1600 ft
Overcast 3400 ft
Windchill 20 °F
Dew Point 27 °F
Humidity 93%
Rainfall 0.05 in
Snow Depth Not available.
UV 0 out of 12
Pollen .10 out of 12
Air Quality Not available.
Flu Activity Not available.
METAR KBAX 172355Z AUTO 27015G23KT 4SM -SN SCT011 BKN016 OVC034 M02/M03 A3004 RMK AO2 T10251033 11003 21025

More Conditions Fewer Conditions

Pressure 30.04 in
Visibility 4.0 miles
Clouds Scattered Clouds 1100 ft
Mostly Cloudy 1600 ft
Overcast 3400 ft
Windchill 20 °F
Dew Point 27 °F
Humidity 93%
Rainfall 0.05 in
Snow Depth Not available.
UV 0 out of 12
Pollen .10 out of 12
Air Quality Not available.
Flu Activity Not available.
METAR KBAX 172355Z AUTO 27015G23KT 4SM -SN SCT011 BKN016 OVC034 M02/M03 A3004 RMK AO2 T10251033 11003 21025

More Conditions Fewer Conditions

10-Day Weather Forecast

Almanac

Astronomy

Dec. 17, 2014 Rise Set
Actual Time
Civil Twilight
Nautical Twilight
Astronomical Twilight
Moon
Length of Visible Light
Length of Day
Tomorrow will be .
, % of the Moon is Illuminated

Today's Extremes

State Highs State Lows

Community

WunderPhotos

Upload Photos

1,778,834 photos uploaded!

WunderBlogs® & News

Nearby

Air Quality

  Air Quality AQ Index Pollutant
Not available.

Snow Depth

Station Depth Elevation

Earthquake Activity

City Distance Mag. Time & Date
Minimum magnitude displayed is 2.5.

Coastal Water Temperatures

Place Temperature

Nearby Weather Stations